sensor_id;sensor_type;location;lat;lon;timestamp;pressure;altitude;pressure_sealevel;temperature;humidity
29215;BME280;16252;49.816;7.964;2024-03-02T00:00:07;98791.63;;;6.43;58.24
29215;BME280;16252;49.816;7.964;2024-03-02T00:02:47;98810.44;;;6.63;58.02
29215;BME280;16252;49.816;7.964;2024-03-02T00:05:20;98812.38;;;6.61;57.94
29215;BME280;16252;49.816;7.964;2024-03-02T00:07:54;98815.03;;;6.61;57.90
29215;BME280;16252;49.816;7.964;2024-03-02T00:10:25;98764.56;;;6.27;57.83
29215;BME280;16252;49.816;7.964;2024-03-02T00:12:55;98766.97;;;6.19;57.81
29215;BME280;16252;49.816;7.964;2024-03-02T00:17:55;98762.75;;;6.16;57.90
29215;BME280;16252;49.816;7.964;2024-03-02T00:20:22;98815.66;;;6.42;58.04
29215;BME280;16252;49.816;7.964;2024-03-02T00:22:48;98746.78;;;6.05;58.14
29215;BME280;16252;49.816;7.964;2024-03-02T00:25:14;98787.53;;;6.28;58.14
29215;BME280;16252;49.816;7.964;2024-03-02T00:27:39;98769.28;;;6.23;58.08
29215;BME280;16252;49.816;7.964;2024-03-02T00:33:21;98803.09;;;6.44;58.23
29215;BME280;16252;49.816;7.964;2024-03-02T00:35:48;98771.59;;;6.28;58.36
29215;BME280;16252;49.816;7.964;2024-03-02T00:38:15;98795.00;;;6.45;58.16
29215;BME280;16252;49.816;7.964;2024-03-02T00:40:44;98789.19;;;6.40;58.22
29215;BME280;16252;49.816;7.964;2024-03-02T00:43:41;98795.00;;;6.57;58.35
29215;BME280;16252;49.816;7.964;2024-03-02T00:46:07;98762.63;;;6.29;58.05
29215;BME280;16252;49.816;7.964;2024-03-02T00:48:33;98752.50;;;6.23;58.26
29215;BME280;16252;49.816;7.964;2024-03-02T00:51:02;98765.41;;;6.39;57.85
29215;BME280;16252;49.816;7.964;2024-03-02T00:53:31;98785.47;;;6.54;58.20
29215;BME280;16252;49.816;7.964;2024-03-02T00:55:58;98770.38;;;6.43;57.98
29215;BME280;16252;49.816;7.964;2024-03-02T00:58:24;98728.59;;;6.23;57.80
29215;BME280;16252;49.816;7.964;2024-03-02T01:00:49;98745.13;;;6.26;57.74
29215;BME280;16252;49.816;7.964;2024-03-02T01:03:15;98769.28;;;6.35;57.68
29215;BME280;16252;49.816;7.964;2024-03-02T01:05:43;98748.38;;;6.30;57.94
29215;BME280;16252;49.816;7.964;2024-03-02T01:08:09;98787.25;;;6.42;57.85
29215;BME280;16252;49.816;7.964;2024-03-02T01:10:34;98753.81;;;6.17;57.98
29215;BME280;16252;49.816;7.964;2024-03-02T01:13:00;98760.59;;;6.21;58.01
29215;BME280;16252;49.816;7.964;2024-03-02T01:15:25;98749.22;;;6.08;57.96
29215;BME280;16252;49.816;7.964;2024-03-02T01:17:50;98710.44;;;5.83;57.83
29215;BME280;16252;49.816;7.964;2024-03-02T01:20:16;98728.94;;;5.96;58.02
29215;BME280;16252;49.816;7.964;2024-03-02T01:22:41;98755.13;;;6.12;58.02
29215;BME280;16252;49.816;7.964;2024-03-02T01:25:08;98766.34;;;6.15;58.32
29215;BME280;16252;49.816;7.964;2024-03-02T01:27:33;98754.53;;;6.08;57.95
29215;BME280;16252;49.816;7.964;2024-03-02T01:29:59;98747.38;;;5.97;58.12
29215;BME280;16252;49.816;7.964;2024-03-02T01:32:25;98722.88;;;5.82;58.34
29215;BME280;16252;49.816;7.964;2024-03-02T01:34:50;98735.53;;;5.90;58.28
29215;BME280;16252;49.816;7.964;2024-03-02T01:37:15;98732.75;;;5.92;58.32
29215;BME280;16252;49.816;7.964;2024-03-02T01:39:40;98746.09;;;6.03;58.25
29215;BME280;16252;49.816;7.964;2024-03-02T01:42:06;98712.59;;;5.78;58.27
29215;BME280;16252;49.816;7.964;2024-03-02T01:44:31;98732.25;;;5.86;58.24
29215;BME280;16252;49.816;7.964;2024-03-02T01:46:56;98742.06;;;5.97;58.13
29215;BME280;16252;49.816;7.964;2024-03-02T01:49:22;98730.81;;;5.82;58.20
29215;BME280;16252;49.816;7.964;2024-03-02T01:51:47;98724.53;;;5.83;58.08
29215;BME280;16252;49.816;7.964;2024-03-02T01:54:12;98714.28;;;5.79;58.07
29215;BME280;16252;49.816;7.964;2024-03-02T01:56:38;98733.69;;;5.79;58.17
29215;BME280;16252;49.816;7.964;2024-03-02T01:59:03;98654.13;;;5.33;58.03
29215;BME280;16252;49.816;7.964;2024-03-02T02:01:28;98729.84;;;5.72;58.26
29215;BME280;16252;49.816;7.964;2024-03-02T02:03:54;98660.28;;;5.33;57.95
29215;BME280;16252;49.816;7.964;2024-03-02T02:06:19;98721.97;;;5.71;58.19
29215;BME280;16252;49.816;7.964;2024-03-02T02:08:44;98695.28;;;5.50;58.04
29215;BME280;16252;49.816;7.964;2024-03-02T02:11:10;98732.84;;;5.79;58.20
29215;BME280;16252;49.816;7.964;2024-03-02T02:13:35;98710.16;;;5.63;58.14
29215;BME280;16252;49.816;7.964;2024-03-02T02:16:08;98759.28;;;5.92;58.53
29215;BME280;16252;49.816;7.964;2024-03-02T02:18:33;98717.13;;;5.64;58.29
29215;BME280;16252;49.816;7.964;2024-03-02T02:20:59;98721.59;;;5.64;58.12
29215;BME280;16252;49.816;7.964;2024-03-02T02:23:24;98712.19;;;5.60;58.24
29215;BME280;16252;49.816;7.964;2024-03-02T02:25:49;98690.81;;;5.50;58.22
29215;BME280;16252;49.816;7.964;2024-03-02T02:28:15;98721.16;;;5.70;58.37
29215;BME280;16252;49.816;7.964;2024-03-02T02:30:40;98672.94;;;5.41;58.21
29215;BME280;16252;49.816;7.964;2024-03-02T02:33:05;98688.03;;;5.52;58.12
29215;BME280;16252;49.816;7.964;2024-03-02T02:35:30;98710.75;;;5.67;58.39
29215;BME280;16252;49.816;7.964;2024-03-02T02:37:57;98687.44;;;5.48;58.59
29215;BME280;16252;49.816;7.964;2024-03-02T02:40:23;98722.56;;;5.63;58.33
29215;BME280;16252;49.816;7.964;2024-03-02T02:42:48;98631.63;;;5.03;58.48
29215;BME280;16252;49.816;7.964;2024-03-02T02:45:14;98727.75;;;5.64;58.25
29215;BME280;16252;49.816;7.964;2024-03-02T02:47:43;98651.41;;;5.10;58.23
29215;BME280;16252;49.816;7.964;2024-03-02T02:50:09;98733.09;;;5.76;58.04
29215;BME280;16252;49.816;7.964;2024-03-02T02:52:36;98673.88;;;5.29;57.89
29215;BME280;16252;49.816;7.964;2024-03-02T02:55:04;98717.13;;;5.53;58.07
29215;BME280;16252;49.816;7.964;2024-03-02T02:57:30;98706.59;;;5.40;58.14
29215;BME280;16252;49.816;7.964;2024-03-02T03:00:00;98702.59;;;5.35;58.22
29215;BME280;16252;49.816;7.964;2024-03-02T03:02:27;98704.19;;;5.37;58.50
29215;BME280;16252;49.816;7.964;2024-03-02T03:04:53;98700.19;;;5.32;58.28
29215;BME280;16252;49.816;7.964;2024-03-02T03:07:18;98662.97;;;5.09;58.35
29215;BME280;16252;49.816;7.964;2024-03-02T03:09:43;98708.84;;;5.34;58.27
29215;BME280;16252;49.816;7.964;2024-03-02T03:12:08;98714.88;;;5.36;58.35
29215;BME280;16252;49.816;7.964;2024-03-02T03:14:34;98654.72;;;5.01;58.36
29215;BME280;16252;49.816;7.964;2024-03-02T03:16:59;98670.69;;;5.12;58.17
29215;BME280;16252;49.816;7.964;2024-03-02T03:19:25;98642.94;;;4.94;58.18
29215;BME280;16252;49.816;7.964;2024-03-02T03:21:50;98669.34;;;5.07;58.07
29215;BME280;16252;49.816;7.964;2024-03-02T03:24:15;98661.00;;;5.00;58.07
29215;BME280;16252;49.816;7.964;2024-03-02T03:26:40;98669.81;;;5.00;58.09
29215;BME280;16252;49.816;7.964;2024-03-02T03:29:06;98700.81;;;5.11;58.12
29215;BME280;16252;49.816;7.964;2024-03-02T03:31:31;98681.72;;;4.95;58.22
29215;BME280;16252;49.816;7.964;2024-03-02T03:33:56;98686.19;;;4.94;58.29
29215;BME280;16252;49.816;7.964;2024-03-02T03:36:22;98657.31;;;4.78;58.43
29215;BME280;16252;49.816;7.964;2024-03-02T03:38:48;98674.22;;;4.89;58.17
29215;BME280;16252;49.816;7.964;2024-03-02T03:41:13;98692.72;;;5.02;58.23
29215;BME280;16252;49.816;7.964;2024-03-02T03:43:38;98675.31;;;4.86;58.26
29215;BME280;16252;49.816;7.964;2024-03-02T03:46:03;98673.81;;;4.82;58.45
29215;BME280;16252;49.816;7.964;2024-03-02T03:48:29;98695.06;;;4.93;58.44
29215;BME280;16252;49.816;7.964;2024-03-02T03:50:56;98667.78;;;4.80;58.53
29215;BME280;16252;49.816;7.964;2024-03-02T03:53:22;98711.03;;;5.05;58.47
29215;BME280;16252;49.816;7.964;2024-03-02T03:55:48;98621.25;;;4.41;58.51
29215;BME280;16252;49.816;7.964;2024-03-02T03:58:14;98690.22;;;4.87;58.49
29215;BME280;16252;49.816;7.964;2024-03-02T04:00:41;98670.16;;;4.72;58.67
29215;BME280;16252;49.816;7.964;2024-03-02T04:03:07;98668.25;;;4.74;58.39
29215;BME280;16252;49.816;7.964;2024-03-02T04:05:32;98681.38;;;4.75;58.51
29215;BME280;16252;49.816;7.964;2024-03-02T04:07:57;98645.97;;;4.52;58.25
29215;BME280;16252;49.816;7.964;2024-03-02T04:10:22;98695.75;;;4.84;58.19
29215;BME280;16252;49.816;7.964;2024-03-02T04:12:49;98674.22;;;4.65;58.32
29215;BME280;16252;49.816;7.964;2024-03-02T04:15:15;98702.69;;;4.74;57.87
29215;BME280;16252;49.816;7.964;2024-03-02T04:17:40;98697.00;;;4.67;57.81
29215;BME280;16252;49.816;7.964;2024-03-02T04:20:06;98664.03;;;4.34;57.74
29215;BME280;16252;49.816;7.964;2024-03-02T04:22:33;98687.72;;;4.49;58.09
29215;BME280;16252;49.816;7.964;2024-03-02T04:24:59;98727.72;;;4.70;57.87
29215;BME280;16252;49.816;7.964;2024-03-02T04:27:24;98693.59;;;4.41;57.82
29215;BME280;16252;49.816;7.964;2024-03-02T04:29:50;98716.03;;;4.48;57.92
29215;BME280;16252;49.816;7.964;2024-03-02T04:32:15;98740.78;;;4.60;58.05
29215;BME280;16252;49.816;7.964;2024-03-02T04:34:40;98691.91;;;4.27;58.22
29215;BME280;16252;49.816;7.964;2024-03-02T04:37:06;98686.94;;;4.23;58.09
29215;BME280;16252;49.816;7.964;2024-03-02T04:39:33;98676.19;;;4.13;58.23
29215;BME280;16252;49.816;7.964;2024-03-02T04:41:59;98701.56;;;4.28;58.28
29215;BME280;16252;49.816;7.964;2024-03-02T04:44:24;98690.56;;;4.22;58.38
29215;BME280;16252;49.816;7.964;2024-03-02T04:46:49;98700.06;;;4.24;58.47
29215;BME280;16252;49.816;7.964;2024-03-02T04:49:15;98724.09;;;4.34;58.44
29215;BME280;16252;49.816;7.964;2024-03-02T04:51:40;98715.31;;;4.33;58.61
29215;BME280;16252;49.816;7.964;2024-03-02T04:54:05;98719.56;;;4.23;58.69
29215;BME280;16252;49.816;7.964;2024-03-02T04:56:30;98741.91;;;4.32;58.64
29215;BME280;16252;49.816;7.964;2024-03-02T04:59:17;98699.34;;;4.09;58.70
29215;BME280;16252;49.816;7.964;2024-03-02T05:01:43;98681.16;;;4.05;58.70
29215;BME280;16252;49.816;7.964;2024-03-02T05:04:08;98744.66;;;4.43;58.79
29215;BME280;16252;49.816;7.964;2024-03-02T05:06:39;98712.47;;;4.24;58.89
29215;BME280;16252;49.816;7.964;2024-03-02T05:09:05;98748.75;;;4.47;58.91
29215;BME280;16252;49.816;7.964;2024-03-02T05:11:31;98731.06;;;4.35;58.83
29215;BME280;16252;49.816;7.964;2024-03-02T05:14:02;98730.53;;;4.43;59.07
29215;BME280;16252;49.816;7.964;2024-03-02T05:16:28;98713.28;;;4.37;58.98
29215;BME280;16252;49.816;7.964;2024-03-02T05:18:53;98753.28;;;4.58;58.93
29215;BME280;16252;49.816;7.964;2024-03-02T05:21:18;98771.59;;;4.74;58.93
29215;BME280;16252;49.816;7.964;2024-03-02T05:23:43;98748.28;;;4.66;58.72
29215;BME280;16252;49.816;7.964;2024-03-02T05:26:09;98740.16;;;4.56;58.78
29215;BME280;16252;49.816;7.964;2024-03-02T05:28:38;98740.78;;;4.60;59.01
29215;BME280;16252;49.816;7.964;2024-03-02T05:31:03;98672.56;;;4.14;59.01
29215;BME280;16252;49.816;7.964;2024-03-02T05:33:29;98647.78;;;4.15;58.98
29215;BME280;16252;49.816;7.964;2024-03-02T05:35:56;98791.44;;;4.92;59.00
29215;BME280;16252;49.816;7.964;2024-03-02T05:38:21;98745.50;;;4.68;59.06
29215;BME280;16252;49.816;7.964;2024-03-02T05:40:47;98745.50;;;4.68;58.88
29215;BME280;16252;49.816;7.964;2024-03-02T05:43:12;98741.25;;;4.78;59.16
29215;BME280;16252;49.816;7.964;2024-03-02T05:45:37;98762.13;;;4.83;58.95
29215;BME280;16252;49.816;7.964;2024-03-02T05:48:03;98745.16;;;4.85;58.94
29215;BME280;16252;49.816;7.964;2024-03-02T05:50:28;98792.53;;;5.14;58.97
29215;BME280;16252;49.816;7.964;2024-03-02T05:52:53;98704.84;;;4.69;59.12
29215;BME280;16252;49.816;7.964;2024-03-02T05:55:19;98747.66;;;4.99;59.24
29215;BME280;16252;49.816;7.964;2024-03-02T05:57:44;98791.53;;;5.28;59.05
29215;BME280;16252;49.816;7.964;2024-03-02T06:00:09;98753.97;;;5.10;58.91
29215;BME280;16252;49.816;7.964;2024-03-02T06:02:39;98689.31;;;4.75;59.24
29215;BME280;16252;49.816;7.964;2024-03-02T06:05:06;98765.97;;;5.27;59.27
29215;BME280;16252;49.816;7.964;2024-03-02T06:07:32;98755.47;;;5.25;59.25
29215;BME280;16252;49.816;7.964;2024-03-02T06:09:57;98746.19;;;5.19;59.09
29215;BME280;16252;49.816;7.964;2024-03-02T06:12:23;98743.41;;;5.21;59.10
29215;BME280;16252;49.816;7.964;2024-03-02T06:14:48;98727.03;;;5.03;58.95
29215;BME280;16252;49.816;7.964;2024-03-02T06:17:14;98754.31;;;5.29;59.02
29215;BME280;16252;49.816;7.964;2024-03-02T06:19:39;98745.84;;;5.24;58.87
29215;BME280;16252;49.816;7.964;2024-03-02T06:22:04;98758.63;;;5.30;58.80
29215;BME280;16252;49.816;7.964;2024-03-02T06:24:30;98689.50;;;4.85;58.85
29215;BME280;16252;49.816;7.964;2024-03-02T06:26:56;98757.06;;;5.28;58.93
29215;BME280;16252;49.816;7.964;2024-03-02T06:29:21;98769.84;;;5.34;58.90
29215;BME280;16252;49.816;7.964;2024-03-02T06:31:47;98753.44;;;5.29;58.86
29215;BME280;16252;49.816;7.964;2024-03-02T06:34:12;98786.06;;;5.42;59.07
29215;BME280;16252;49.816;7.964;2024-03-02T06:36:38;98769.97;;;5.32;59.27
29215;BME280;16252;49.816;7.964;2024-03-02T06:39:03;98764.53;;;5.34;59.44
29215;BME280;16252;49.816;7.964;2024-03-02T06:41:29;98752.50;;;5.30;59.37
29215;BME280;16252;49.816;7.964;2024-03-02T06:43:54;98791.41;;;5.53;59.53
29215;BME280;16252;49.816;7.964;2024-03-02T06:46:27;98694.41;;;5.03;59.71
29215;BME280;16252;49.816;7.964;2024-03-02T06:48:52;98810.50;;;5.70;59.74
29215;BME280;16252;49.816;7.964;2024-03-02T06:51:18;98760.47;;;5.41;59.41
29215;BME280;16252;49.816;7.964;2024-03-02T06:53:43;98797.22;;;5.70;59.61
29215;BME280;16252;49.816;7.964;2024-03-02T06:56:08;98760.03;;;5.47;59.63
29215;BME280;16252;49.816;7.964;2024-03-02T06:58:34;98794.97;;;5.76;59.72
29215;BME280;16252;49.816;7.964;2024-03-02T07:00:59;98778.66;;;5.70;59.79
29215;BME280;16252;49.816;7.964;2024-03-02T07:03:27;98770.69;;;5.70;59.79
29215;BME280;16252;49.816;7.964;2024-03-02T07:05:52;98770.00;;;5.79;59.64
29215;BME280;16252;49.816;7.964;2024-03-02T07:08:18;98774.63;;;5.88;59.72
29215;BME280;16252;49.816;7.964;2024-03-02T07:10:43;98758.78;;;5.75;59.86
29215;BME280;16252;49.816;7.964;2024-03-02T07:13:08;98778.41;;;5.97;59.60
29215;BME280;16252;49.816;7.964;2024-03-02T07:15:33;98775.13;;;5.93;59.49
29215;BME280;16252;49.816;7.964;2024-03-02T07:18:02;98773.22;;;5.95;59.65
29215;BME280;16252;49.816;7.964;2024-03-02T07:20:28;98776.59;;;5.97;59.51
29215;BME280;16252;49.816;7.964;2024-03-02T07:22:53;98814.44;;;6.23;59.78
29215;BME280;16252;49.816;7.964;2024-03-02T07:25:18;98796.28;;;6.17;59.79
29215;BME280;16252;49.816;7.964;2024-03-02T07:27:44;98813.84;;;6.31;59.63
29215;BME280;16252;49.816;7.964;2024-03-02T07:30:09;98840.78;;;6.49;59.80
29215;BME280;16252;49.816;7.964;2024-03-02T07:32:36;98787.88;;;6.23;59.78
29215;BME280;16252;49.816;7.964;2024-03-02T07:35:01;98804.28;;;6.40;59.88
29215;BME280;16252;49.816;7.964;2024-03-02T07:37:28;98795.22;;;6.42;59.81
29215;BME280;16252;49.816;7.964;2024-03-02T07:39:54;98782.19;;;6.39;59.86
29215;BME280;16252;49.816;7.964;2024-03-02T07:42:19;98831.47;;;6.77;59.82
29215;BME280;16252;49.816;7.964;2024-03-02T07:44:44;98812.03;;;6.65;60.10
29215;BME280;16252;49.816;7.964;2024-03-02T07:47:10;98833.16;;;6.89;60.04
29215;BME280;16252;49.816;7.964;2024-03-02T07:49:36;98815.78;;;6.74;60.14
29215;BME280;16252;49.816;7.964;2024-03-02T07:52:01;98773.38;;;6.50;59.98
29215;BME280;16252;49.816;7.964;2024-03-02T07:54:26;98802.34;;;6.76;59.97
29215;BME280;16252;49.816;7.964;2024-03-02T07:56:52;98809.00;;;6.81;60.28
29215;BME280;16252;49.816;7.964;2024-03-02T07:59:17;98850.91;;;7.11;60.23
29215;BME280;16252;49.816;7.964;2024-03-02T08:01:42;98820.22;;;6.96;60.47
29215;BME280;16252;49.816;7.964;2024-03-02T08:04:08;98856.09;;;7.24;60.39
29215;BME280;16252;49.816;7.964;2024-03-02T08:06:33;98847.66;;;7.19;60.52
29215;BME280;16252;49.816;7.964;2024-03-02T08:09:00;98863.06;;;7.36;60.59
29215;BME280;16252;49.816;7.964;2024-03-02T08:11:26;98821.16;;;7.18;60.56
29215;BME280;16252;49.816;7.964;2024-03-02T08:13:56;98857.47;;;7.51;60.70
29215;BME280;16252;49.816;7.964;2024-03-02T08:16:23;98835.13;;;7.42;61.15
29215;BME280;16252;49.816;7.964;2024-03-02T08:18:49;98848.22;;;7.66;61.06
29215;BME280;16252;49.816;7.964;2024-03-02T08:21:15;98861.63;;;7.76;60.91
29215;BME280;16252;49.816;7.964;2024-03-02T08:23:40;98834.66;;;7.69;60.97
29215;BME280;16252;49.816;7.964;2024-03-02T08:26:07;98861.91;;;7.94;61.11
29215;BME280;16252;49.816;7.964;2024-03-02T08:28:32;98792.50;;;7.53;61.04
29215;BME280;16252;49.816;7.964;2024-03-02T08:30:58;98841.91;;;7.99;61.09
29215;BME280;16252;49.816;7.964;2024-03-02T08:33:23;98764.25;;;7.62;61.14
29215;BME280;16252;49.816;7.964;2024-03-02T08:35:48;98824.78;;;8.13;61.19
29215;BME280;16252;49.816;7.964;2024-03-02T08:38:14;98748.25;;;7.73;61.03
29215;BME280;16252;49.816;7.964;2024-03-02T08:40:39;98735.50;;;7.77;60.94
29215;BME280;16252;49.816;7.964;2024-03-02T08:43:04;98820.84;;;8.38;60.95
29215;BME280;16252;49.816;7.964;2024-03-02T08:45:30;98818.06;;;8.40;60.91
29215;BME280;16252;49.816;7.964;2024-03-02T08:47:55;98857.09;;;8.72;60.85
29215;BME280;16252;49.816;7.964;2024-03-02T08:50:20;98823.91;;;8.55;60.87
29215;BME280;16252;49.816;7.964;2024-03-02T08:52:45;98831.63;;;8.58;60.78
29215;BME280;16252;49.816;7.964;2024-03-02T08:55:11;98768.91;;;8.33;60.54
29215;BME280;16252;49.816;7.964;2024-03-02T08:57:36;98774.22;;;8.33;60.57
29215;BME280;16252;49.816;7.964;2024-03-02T09:00:01;98815.38;;;8.61;60.52
29215;BME280;16252;49.816;7.964;2024-03-02T09:02:27;98830.28;;;8.73;60.73
29215;BME280;16252;49.816;7.964;2024-03-02T09:04:53;98773.53;;;8.52;60.93
29215;BME280;16252;49.816;7.964;2024-03-02T09:07:18;98827.59;;;8.94;60.84
29215;BME280;16252;49.816;7.964;2024-03-02T09:09:43;98841.56;;;9.17;60.80
29215;BME280;16252;49.816;7.964;2024-03-02T09:12:09;98766.44;;;8.72;60.87
29215;BME280;16252;49.816;7.964;2024-03-02T09:14:34;98863.66;;;9.39;60.71
29215;BME280;16252;49.816;7.964;2024-03-02T09:17:00;98824.03;;;9.24;60.48
29215;BME280;16252;49.816;7.964;2024-03-02T09:19:25;98776.06;;;9.03;60.55
29215;BME280;16252;49.816;7.964;2024-03-02T09:21:50;98829.97;;;9.47;60.38
29215;BME280;16252;49.816;7.964;2024-03-02T09:24:16;98837.53;;;9.62;60.47
29215;BME280;16252;49.816;7.964;2024-03-02T09:26:41;98826.59;;;9.55;60.13
29215;BME280;16252;49.816;7.964;2024-03-02T09:29:06;98814.06;;;9.55;60.01
29215;BME280;16252;49.816;7.964;2024-03-02T09:31:32;98815.34;;;9.61;59.94
29215;BME280;16252;49.816;7.964;2024-03-02T09:34:00;98812.13;;;9.67;60.17
29215;BME280;16252;49.816;7.964;2024-03-02T09:36:25;98806.63;;;9.69;60.19
29215;BME280;16252;49.816;7.964;2024-03-02T09:38:50;98832.22;;;9.91;60.33
29215;BME280;16252;49.816;7.964;2024-03-02T09:41:15;98833.06;;;10.01;60.55
29215;BME280;16252;49.816;7.964;2024-03-02T09:43:41;98822.78;;;10.06;60.66
29215;BME280;16252;49.816;7.964;2024-03-02T09:46:09;98814.06;;;10.14;60.46
29215;BME280;16252;49.816;7.964;2024-03-02T09:48:34;98807.28;;;10.19;60.48
29215;BME280;16252;49.816;7.964;2024-03-02T09:51:00;98798.97;;;10.23;60.46
29215;BME280;16252;49.816;7.964;2024-03-02T09:53:31;98838.72;;;10.65;60.29
29215;BME280;16252;49.816;7.964;2024-03-02T09:55:56;98807.09;;;10.50;60.10
29215;BME280;16252;49.816;7.964;2024-03-02T09:58:22;98808.19;;;10.57;60.13
29215;BME280;16252;49.816;7.964;2024-03-02T10:00:47;98703.66;;;10.04;59.87
29215;BME280;16252;49.816;7.964;2024-03-02T10:03:13;98806.19;;;10.69;59.79
29215;BME280;16252;49.816;7.964;2024-03-02T10:05:38;98781.84;;;10.62;59.78
29215;BME280;16252;49.816;7.964;2024-03-02T10:08:04;98796.72;;;10.75;59.63
29215;BME280;16252;49.816;7.964;2024-03-02T10:10:36;98841.78;;;11.07;59.74
29215;BME280;16252;49.816;7.964;2024-03-02T10:13:06;98838.41;;;11.05;59.65
29215;BME280;16252;49.816;7.964;2024-03-02T10:15:31;98842.63;;;11.07;59.63
29215;BME280;16252;49.816;7.964;2024-03-02T10:17:56;98819.59;;;10.97;59.55
29215;BME280;16252;49.816;7.964;2024-03-02T10:20:24;98818.97;;;11.03;59.53
29215;BME280;16252;49.816;7.964;2024-03-02T10:22:52;98734.16;;;10.58;59.40
29215;BME280;16252;49.816;7.964;2024-03-02T10:25:31;98819.19;;;11.19;59.39
29215;BME280;16252;49.816;7.964;2024-03-02T10:27:57;98790.59;;;10.92;59.52
29215;BME280;16252;49.816;7.964;2024-03-02T10:30:23;98789.16;;;10.98;59.63
29215;BME280;16252;49.816;7.964;2024-03-02T10:32:49;98812.56;;;11.14;59.50
29215;BME280;16252;49.816;7.964;2024-03-02T10:37:47;98769.44;;;10.99;59.43
29215;BME280;16252;49.816;7.964;2024-03-02T10:40:13;98620.22;;;10.10;59.25
29215;BME280;16252;49.816;7.964;2024-03-02T10:42:38;98688.22;;;10.62;59.58
29215;BME280;16252;49.816;7.964;2024-03-02T10:45:06;98817.47;;;11.46;59.71
29215;BME280;16252;49.816;7.964;2024-03-02T10:47:33;98793.81;;;11.41;59.68
29215;BME280;16252;49.816;7.964;2024-03-02T10:50:00;98787.47;;;11.42;59.65
29215;BME280;16252;49.816;7.964;2024-03-02T10:52:26;98746.69;;;11.31;59.85
29215;BME280;16252;49.816;7.964;2024-03-02T10:54:52;98768.94;;;11.49;59.80
29215;BME280;16252;49.816;7.964;2024-03-02T10:57:21;98792.97;;;11.77;59.56
29215;BME280;16252;49.816;7.964;2024-03-02T11:00:01;98769.31;;;11.72;59.51
29215;BME280;16252;49.816;7.964;2024-03-02T11:02:28;98785.94;;;11.93;59.61
29215;BME280;16252;49.816;7.964;2024-03-02T11:04:59;98747.41;;;11.77;59.58
29215;BME280;16252;49.816;7.964;2024-03-02T11:07:26;98759.84;;;11.96;59.55
29215;BME280;16252;49.816;7.964;2024-03-02T11:10:03;98787.81;;;12.19;59.44
29215;BME280;16252;49.816;7.964;2024-03-02T11:12:38;98757.13;;;12.13;59.45
29215;BME280;16252;49.816;7.964;2024-03-02T11:15:09;98769.13;;;12.35;59.60
29215;BME280;16252;49.816;7.964;2024-03-02T11:17:36;98752.78;;;12.47;59.97
29215;BME280;16252;49.816;7.964;2024-03-02T11:20:03;98773.03;;;12.75;59.76
29215;BME280;16252;49.816;7.964;2024-03-02T11:22:29;98756.00;;;13.01;60.42
29215;BME280;16252;49.816;7.964;2024-03-02T11:24:55;98747.72;;;13.29;59.87
29215;BME280;16252;49.816;7.964;2024-03-02T11:30:14;98774.81;;;14.09;60.01
29215;BME280;16252;49.816;7.964;2024-03-02T11:32:55;98710.13;;;13.94;57.85
29215;BME280;16252;49.816;7.964;2024-03-02T11:35:21;98712.66;;;14.04;57.28
29215;BME280;16252;49.816;7.964;2024-03-02T11:37:46;98744.69;;;14.30;56.71
29215;BME280;16252;49.816;7.964;2024-03-02T11:40:12;98740.50;;;14.27;56.45
29215;BME280;16252;49.816;7.964;2024-03-02T11:42:38;98748.56;;;14.36;56.24
29215;BME280;16252;49.816;7.964;2024-03-02T11:45:03;98651.84;;;13.78;55.87
29215;BME280;16252;49.816;7.964;2024-03-02T11:47:31;98706.75;;;14.08;55.83
29215;BME280;16252;49.816;7.964;2024-03-02T11:49:56;98717.66;;;14.15;55.72
29215;BME280;16252;49.816;7.964;2024-03-02T11:52:23;98746.41;;;14.31;55.45
29215;BME280;16252;49.816;7.964;2024-03-02T11:54:50;98715.31;;;14.12;55.33
29215;BME280;16252;49.816;7.964;2024-03-02T11:57:20;98740.84;;;14.24;55.34
29215;BME280;16252;49.816;7.964;2024-03-02T11:59:47;98705.91;;;14.00;55.14
29215;BME280;16252;49.816;7.964;2024-03-02T12:02:19;98684.78;;;13.88;55.02
29215;BME280;16252;49.816;7.964;2024-03-02T12:04:46;98725.75;;;14.07;55.19
29215;BME280;16252;49.816;7.964;2024-03-02T12:07:18;98712.66;;;14.04;55.14
29215;BME280;16252;49.816;7.964;2024-03-02T12:09:43;98664.13;;;13.73;55.62
29215;BME280;16252;49.816;7.964;2024-03-02T12:12:09;98702.25;;;14.01;55.23
29215;BME280;16252;49.816;7.964;2024-03-02T12:14:36;98674.53;;;13.84;55.07
29215;BME280;16252;49.816;7.964;2024-03-02T12:17:02;98699.03;;;13.97;55.25
29215;BME280;16252;49.816;7.964;2024-03-02T12:19:28;98684.78;;;13.88;55.08
29215;BME280;16252;49.816;7.964;2024-03-02T12:21:58;98700.53;;;14.00;54.80
29215;BME280;16252;49.816;7.964;2024-03-02T12:24:26;98689.31;;;13.96;54.95
29215;BME280;16252;49.816;7.964;2024-03-02T12:26:52;98678.72;;;13.86;54.43
29215;BME280;16252;49.816;7.964;2024-03-02T12:29:19;98682.75;;;13.99;54.26
29215;BME280;16252;49.816;7.964;2024-03-02T12:31:44;98711.13;;;14.09;54.57
29215;BME280;16252;49.816;7.964;2024-03-02T12:34:13;98703.88;;;14.18;54.16
29215;BME280;16252;49.816;7.964;2024-03-02T12:36:40;98683.19;;;14.19;54.42
29215;BME280;16252;49.816;7.964;2024-03-02T12:39:07;98687.72;;;14.26;54.18
29215;BME280;16252;49.816;7.964;2024-03-02T12:41:36;98636.50;;;14.03;53.40
29215;BME280;16252;49.816;7.964;2024-03-02T12:44:01;98645.91;;;14.16;53.70
29215;BME280;16252;49.816;7.964;2024-03-02T12:46:27;98661.66;;;14.27;53.47
29215;BME280;16252;49.816;7.964;2024-03-02T12:48:52;98660.09;;;14.32;53.85
29215;BME280;16252;49.816;7.964;2024-03-02T12:51:17;98647.06;;;14.21;53.69
29215;BME280;16252;49.816;7.964;2024-03-02T12:53:43;98612.94;;;14.14;53.34
29215;BME280;16252;49.816;7.964;2024-03-02T12:56:08;98663.28;;;14.44;53.48
29215;BME280;16252;49.816;7.964;2024-03-02T12:58:39;98644.59;;;14.43;53.24
29215;BME280;16252;49.816;7.964;2024-03-02T13:01:07;98650.81;;;14.51;53.03
29215;BME280;16252;49.816;7.964;2024-03-02T13:03:43;98645.03;;;14.63;52.77
29215;BME280;16252;49.816;7.964;2024-03-02T13:06:08;98644.06;;;14.64;52.41
29215;BME280;16252;49.816;7.964;2024-03-02T13:08:34;98615.50;;;14.55;52.25
29215;BME280;16252;49.816;7.964;2024-03-02T13:11:00;98635.41;;;14.68;51.95
29215;BME280;16252;49.816;7.964;2024-03-02T13:13:26;98646.09;;;14.85;51.88